createdAt,value
2023-02-27T00:00:14.726Z,4.70
2023-02-27T00:02:45.617Z,3.50
2023-02-27T00:05:12.599Z,3.70
2023-02-27T00:07:39.446Z,3.75
2023-02-27T00:10:07.604Z,3.63
2023-02-27T00:12:38.491Z,3.78
2023-02-27T00:15:10.328Z,3.40
2023-02-27T00:17:37.333Z,3.72
2023-02-27T00:20:05.886Z,3.97
2023-02-27T00:22:32.763Z,4.20
2023-02-27T00:24:59.425Z,3.53
2023-02-27T00:27:26.441Z,3.17
2023-02-27T00:29:53.087Z,4.15
2023-02-27T00:32:19.835Z,3.72
2023-02-27T00:34:46.549Z,3.25
2023-02-27T00:37:13.268Z,3.58
2023-02-27T00:39:39.918Z,3.90
2023-02-27T00:42:08.110Z,3.85
2023-02-27T00:44:34.976Z,3.97
2023-02-27T00:47:01.699Z,3.22
2023-02-27T00:49:28.398Z,4.63
2023-02-27T00:51:55.156Z,3.70
2023-02-27T00:54:21.809Z,3.75
2023-02-27T00:56:48.476Z,3.72
2023-02-27T00:59:15.305Z,3.97
2023-02-27T01:01:42.197Z,4.10
2023-02-27T01:04:08.883Z,3.42
2023-02-27T01:06:35.580Z,3.78
2023-02-27T01:09:02.398Z,4.15
2023-02-27T01:11:29.121Z,2.92
2023-02-27T01:13:56.213Z,4.25
2023-02-27T01:16:24.098Z,3.13
2023-02-27T01:18:50.820Z,4.70
2023-02-27T01:21:17.587Z,3.45
2023-02-27T01:23:44.281Z,4.10
2023-02-27T01:26:11.088Z,3.15
2023-02-27T01:28:37.853Z,3.40
2023-02-27T01:31:04.645Z,3.70
2023-02-27T01:33:31.372Z,3.05
2023-02-27T01:35:58.055Z,3.70
2023-02-27T01:38:24.732Z,4.18
2023-02-27T01:40:51.404Z,3.85
2023-02-27T01:43:22.332Z,3.53
2023-02-27T01:45:49.618Z,3.05
2023-02-27T01:48:32.146Z,3.67
2023-02-27T01:51:05.310Z,3.42
2023-02-27T01:53:34.058Z,3.15
2023-02-27T01:56:04.476Z,4.10
2023-02-27T01:58:31.724Z,3.42
2023-02-27T02:00:58.565Z,3.53
2023-02-27T02:03:31.390Z,3.42
2023-02-27T02:06:00.133Z,3.15
2023-02-27T02:08:29.033Z,3.08
2023-02-27T02:10:57.010Z,3.58
2023-02-27T02:13:24.031Z,3.25
2023-02-27T02:16:27.704Z,3.00
2023-02-27T02:19:01.363Z,2.88
2023-02-27T02:22:05.591Z,3.80
2023-02-27T02:24:57.863Z,3.50
2023-02-27T02:27:53.013Z,3.42
2023-02-27T02:30:37.790Z,3.40
2023-02-27T02:33:13.420Z,3.70
2023-02-27T02:35:58.194Z,3.28
2023-02-27T02:38:48.692Z,3.13
2023-02-27T02:41:49.065Z,3.80
2023-02-27T02:44:24.343Z,3.38
2023-02-27T02:49:38.742Z,3.03
2023-02-27T02:52:17.443Z,3.47
2023-02-27T02:54:58.440Z,4.20
2023-02-27T02:57:37.624Z,3.83
2023-02-27T03:00:32.155Z,3.38
2023-02-27T03:03:31.257Z,3.65
2023-02-27T03:06:07.995Z,3.40
2023-02-27T03:08:40.001Z,3.70
2023-02-27T03:11:07.253Z,4.28
2023-02-27T03:13:33.879Z,3.67
2023-02-27T03:16:06.275Z,3.05
2023-02-27T03:18:37.540Z,3.35
2023-02-27T03:21:10.275Z,3.42
2023-02-27T03:23:43.476Z,3.75
2023-02-27T03:26:11.683Z,3.38
2023-02-27T03:28:41.005Z,3.47
2023-02-27T03:31:14.125Z,3.75
2023-02-27T03:34:19.287Z,4.25
2023-02-27T03:37:01.037Z,3.47
2023-02-27T03:39:44.699Z,4.07
2023-02-27T03:42:14.319Z,2.83
2023-02-27T03:44:59.063Z,3.22
2023-02-27T03:47:25.937Z,3.20
2023-02-27T03:49:53.165Z,4.03
2023-02-27T03:52:20.891Z,4.10
2023-02-27T03:54:53.517Z,3.83
2023-02-27T03:57:20.583Z,3.50
2023-02-27T03:59:47.278Z,3.10
2023-02-27T04:02:14.369Z,3.47
2023-02-27T04:04:41.327Z,3.40
2023-02-27T04:07:37.986Z,3.10
2023-02-27T04:10:20.184Z,3.55
2023-02-27T04:13:05.541Z,4.00
2023-02-27T04:15:53.688Z,3.13
2023-02-27T04:18:38.940Z,3.30
2023-02-27T04:21:14.840Z,3.35
2023-02-27T04:23:44.576Z,5.07
2023-02-27T04:26:39.734Z,3.92
2023-02-27T04:29:27.023Z,3.83
2023-02-27T04:31:59.668Z,3.35
2023-02-27T04:34:36.974Z,3.38
2023-02-27T04:37:20.386Z,3.70
2023-02-27T04:40:02.731Z,3.60
2023-02-27T04:42:32.697Z,4.22
2023-02-27T04:45:02.409Z,3.92
2023-02-27T04:47:33.855Z,7.63
2023-02-27T04:50:05.650Z,4.85
2023-02-27T04:52:37.140Z,4.03
2023-02-27T04:55:28.316Z,3.40
2023-02-27T04:58:04.031Z,3.72
2023-02-27T05:00:32.324Z,3.63
2023-02-27T05:03:06.167Z,4.20
2023-02-27T05:05:34.582Z,4.65
2023-02-27T05:08:09.767Z,4.20
2023-02-27T05:10:40.599Z,4.90
2023-02-27T05:13:14.278Z,4.07
2023-02-27T05:15:49.878Z,4.25
2023-02-27T05:18:21.321Z,4.47
2023-02-27T05:21:01.805Z,6.53
2023-02-27T05:23:43.558Z,5.00
2023-02-27T05:26:13.237Z,4.97
2023-02-27T05:29:01.358Z,4.40
2023-02-27T05:31:34.559Z,5.00
2023-02-27T05:34:27.619Z,4.55
2023-02-27T05:37:18.828Z,6.40
2023-02-27T05:39:47.387Z,5.38
2023-02-27T05:42:28.421Z,4.88
2023-02-27T05:45:08.188Z,4.85
2023-02-27T05:47:37.454Z,5.75
2023-02-27T05:50:11.822Z,4.47
2023-02-27T05:52:40.669Z,4.95
2023-02-27T05:55:18.825Z,4.32
2023-02-27T05:57:49.373Z,4.90
2023-02-27T06:00:18.345Z,4.50
2023-02-27T06:02:45.415Z,4.85
2023-02-27T06:05:15.146Z,4.10
2023-02-27T06:07:41.996Z,4.65
2023-02-27T06:10:11.515Z,4.60
2023-02-27T06:12:38.150Z,4.00
2023-02-27T06:15:05.134Z,4.43
2023-02-27T06:17:31.760Z,4.88
2023-02-27T06:19:58.461Z,5.45
2023-02-27T06:22:25.249Z,4.63
2023-02-27T06:24:51.943Z,5.95
2023-02-27T06:27:18.620Z,5.53
2023-02-27T06:29:45.335Z,8.65
2023-02-27T06:32:12.086Z,4.55
2023-02-27T06:34:38.832Z,4.13
2023-02-27T06:37:05.479Z,4.10
2023-02-27T06:39:32.950Z,5.63
2023-02-27T06:41:59.729Z,5.10
2023-02-27T06:44:26.484Z,4.60
2023-02-27T06:46:53.143Z,5.30
2023-02-27T06:49:19.916Z,4.60
2023-02-27T06:51:46.591Z,4.53
2023-02-27T06:54:13.564Z,4.45
2023-02-27T06:56:40.226Z,5.40
2023-02-27T06:59:07.371Z,4.72
2023-02-27T07:01:34.044Z,4.78
2023-02-27T07:04:01.306Z,4.43
2023-02-27T07:07:32.791Z,4.32
2023-02-27T07:09:14.767Z,4.75
2023-02-27T07:11:41.478Z,5.30
2023-02-27T07:14:08.123Z,4.93
2023-02-27T07:16:34.790Z,5.35
2023-02-27T07:19:01.462Z,4.57
2023-02-27T07:21:28.262Z,5.20
2023-02-27T07:23:55.114Z,5.22
2023-02-27T07:26:21.821Z,5.95
2023-02-27T07:28:48.698Z,5.93
2023-02-27T07:31:15.647Z,5.05
2023-02-27T07:33:42.328Z,4.05
2023-02-27T07:36:09.098Z,5.03
2023-02-27T07:38:35.873Z,5.15
2023-02-27T07:41:02.561Z,5.15
2023-02-27T07:43:29.203Z,5.32
2023-02-27T07:45:55.968Z,6.45
2023-02-27T07:48:22.593Z,5.60
2023-02-27T07:50:49.310Z,5.25
2023-02-27T07:53:15.982Z,5.35
2023-02-27T07:55:42.638Z,7.57
2023-02-27T07:58:09.343Z,5.45
2023-02-27T08:00:36.039Z,6.75
2023-02-27T08:03:02.861Z,8.25
2023-02-27T08:05:29.711Z,9.88
2023-02-27T08:07:56.617Z,9.02
2023-02-27T08:10:23.392Z,11.18
2023-02-27T08:12:50.130Z,9.98
2023-02-27T08:15:17.624Z,8.18
2023-02-27T08:17:45.886Z,11.68
2023-02-27T08:20:14.108Z,9.30
2023-02-27T08:22:41.449Z,10.85
2023-02-27T08:25:11.147Z,12.68
2023-02-27T08:27:38.909Z,12.60
2023-02-27T08:30:07.329Z,12.63
2023-02-27T08:32:34.221Z,10.13
2023-02-27T08:35:01.037Z,9.35
2023-02-27T08:37:28.422Z,8.10
2023-02-27T08:39:55.144Z,6.50
2023-02-27T08:42:21.794Z,6.05
2023-02-27T08:44:50.745Z,7.90
2023-02-27T08:47:18.144Z,7.45
2023-02-27T08:49:44.802Z,7.13
2023-02-27T08:52:11.460Z,8.20
2023-02-27T08:54:38.331Z,7.00
2023-02-27T08:57:05.757Z,7.15
2023-02-27T08:59:32.470Z,6.35
2023-02-27T09:01:59.301Z,7.35
2023-02-27T09:04:26.509Z,7.13
2023-02-27T09:06:57.441Z,6.15
2023-02-27T09:09:24.544Z,6.13
2023-02-27T09:11:53.030Z,6.20
2023-02-27T09:14:20.002Z,6.07
2023-02-27T09:16:49.623Z,6.63
2023-02-27T09:19:16.446Z,5.22
2023-02-27T09:21:43.125Z,4.55
2023-02-27T09:24:19.782Z,4.05
2023-02-27T09:26:47.206Z,3.42
2023-02-27T09:29:14.171Z,10.82
2023-02-27T09:31:41.010Z,5.57
2023-02-27T09:34:07.907Z,9.93
2023-02-27T09:36:35.070Z,6.28
2023-02-27T09:39:01.729Z,5.97
2023-02-27T09:41:37.608Z,4.80
2023-02-27T09:44:04.610Z,3.05
2023-02-27T09:46:31.800Z,3.75
2023-02-27T09:49:04.643Z,3.28
2023-02-27T09:51:31.330Z,3.33
2023-02-27T09:54:00.659Z,3.67
2023-02-27T09:56:36.582Z,3.55
2023-02-27T09:59:09.225Z,3.50
2023-02-27T10:01:47.739Z,3.30
2023-02-27T10:04:28.545Z,3.88
2023-02-27T10:07:10.403Z,5.20
2023-02-27T10:10:06.294Z,8.45
2023-02-27T10:12:51.613Z,4.28
2023-02-27T10:15:37.125Z,4.43
2023-02-27T10:18:25.554Z,5.57
2023-02-27T10:21:21.409Z,4.82
2023-02-27T10:24:00.785Z,4.18
2023-02-27T10:26:33.734Z,4.35
2023-02-27T10:29:16.440Z,4.75
2023-02-27T10:31:45.261Z,4.28
2023-02-27T10:34:16.389Z,6.13
2023-02-27T10:36:45.542Z,5.88
2023-02-27T10:39:15.798Z,3.72
2023-02-27T10:41:44.420Z,6.05
2023-02-27T10:44:15.595Z,5.60
2023-02-27T10:46:42.499Z,4.60
2023-02-27T10:49:19.195Z,5.13
2023-02-27T10:51:48.084Z,5.22
2023-02-27T10:54:25.254Z,4.47
2023-02-27T10:56:55.934Z,4.05
2023-02-27T10:59:41.825Z,4.97
2023-02-27T11:02:11.532Z,4.32
2023-02-27T11:04:39.952Z,5.30
2023-02-27T11:07:12.217Z,5.15
2023-02-27T11:09:39.123Z,4.60
2023-02-27T11:12:13.439Z,4.55
2023-02-27T11:14:54.602Z,5.25
2023-02-27T11:17:32.934Z,4.35
2023-02-27T11:20:01.467Z,4.03
2023-02-27T11:22:30.422Z,3.72
2023-02-27T11:25:25.751Z,3.58
2023-02-27T11:27:52.517Z,3.83
2023-02-27T11:30:27.362Z,4.65
2023-02-27T11:32:56.616Z,4.75
2023-02-27T11:35:34.859Z,4.05
2023-02-27T11:38:07.139Z,3.90
2023-02-27T11:40:39.064Z,4.03
2023-02-27T11:43:15.478Z,3.83
2023-02-27T11:46:19.011Z,3.47
2023-02-27T11:48:32.536Z,3.67
2023-02-27T11:51:05.252Z,3.17
2023-02-27T11:53:58.453Z,3.30
2023-02-27T11:56:29.980Z,3.33
2023-02-27T11:59:03.045Z,3.78
2023-02-27T12:02:00.267Z,3.47
2023-02-27T12:04:41.780Z,3.63
2023-02-27T12:07:15.324Z,4.13
2023-02-27T12:10:14.351Z,3.83
2023-02-27T12:12:48.339Z,4.38
2023-02-27T12:15:22.446Z,3.50
2023-02-27T12:18:00.083Z,4.00
2023-02-27T12:21:12.146Z,4.40
2023-02-27T12:23:59.507Z,5.22
2023-02-27T12:29:02.420Z,4.75
2023-02-27T12:31:35.108Z,3.85
2023-02-27T12:34:20.129Z,4.53
2023-02-27T12:36:48.660Z,3.83
2023-02-27T12:39:24.841Z,5.45
2023-02-27T12:42:17.575Z,4.72
2023-02-27T12:44:54.138Z,5.57
2023-02-27T12:47:42.585Z,6.55
2023-02-27T12:50:16.534Z,5.65
2023-02-27T12:53:19.393Z,4.82
2023-02-27T12:56:04.493Z,4.80
2023-02-27T12:58:38.069Z,4.65
2023-02-27T13:01:31.093Z,5.80
2023-02-27T13:04:07.592Z,5.40
2023-02-27T13:07:15.971Z,4.72
2023-02-27T13:10:29.361Z,4.93
2023-02-27T13:13:09.756Z,4.97
2023-02-27T13:16:09.771Z,5.40
2023-02-27T13:18:48.343Z,4.38
2023-02-27T13:21:55.602Z,4.57
2023-02-27T13:24:30.353Z,5.43
2023-02-27T13:27:00.125Z,4.75
2023-02-27T13:29:38.463Z,4.32
2023-02-27T13:32:14.313Z,3.78
2023-02-27T13:34:44.873Z,5.70
2023-02-27T13:37:11.619Z,4.78
2023-02-27T13:39:45.095Z,12.27
2023-02-27T13:42:27.106Z,7.93
2023-02-27T13:44:58.257Z,7.32
2023-02-27T13:47:30.899Z,5.45
2023-02-27T13:50:01.971Z,5.60
2023-02-27T13:52:33.546Z,5.43
2023-02-27T13:55:11.274Z,4.82
2023-02-27T13:57:38.827Z,6.18
2023-02-27T14:00:18.854Z,5.80
2023-02-27T14:02:59.519Z,5.43
2023-02-27T14:08:00.465Z,6.47
2023-02-27T14:10:29.736Z,6.13
2023-02-27T14:12:57.743Z,6.25
2023-02-27T14:15:24.418Z,5.53
2023-02-27T14:18:13.945Z,6.72
2023-02-27T14:20:44.574Z,4.70
2023-02-27T14:23:17.155Z,5.20
2023-02-27T14:25:54.633Z,7.78
2023-02-27T14:28:27.534Z,4.20
2023-02-27T14:30:57.700Z,4.43
2023-02-27T14:33:40.344Z,5.05
2023-02-27T14:36:17.551Z,4.60
2023-02-27T14:38:44.278Z,4.72
2023-02-27T14:41:32.572Z,4.90
2023-02-27T14:43:59.835Z,5.78
2023-02-27T14:46:39.787Z,4.22
2023-02-27T14:49:08.515Z,5.07
2023-02-27T14:51:37.207Z,3.95
2023-02-27T14:54:06.726Z,10.25
2023-02-27T14:56:34.214Z,5.30
2023-02-27T14:59:05.064Z,5.82
2023-02-27T15:01:35.488Z,6.50
2023-02-27T15:04:02.640Z,6.90
2023-02-27T15:06:36.320Z,9.52
2023-02-27T15:09:03.769Z,9.95
2023-02-27T15:11:30.942Z,10.20
2023-02-27T15:14:03.035Z,7.72
2023-02-27T15:16:38.306Z,8.32
2023-02-27T15:19:20.503Z,8.65
2023-02-27T15:22:02.304Z,8.98
2023-02-27T15:24:47.826Z,8.05
2023-02-27T15:27:19.211Z,8.77
2023-02-27T15:29:49.674Z,9.15
2023-02-27T15:32:21.417Z,7.50
2023-02-27T15:34:48.165Z,8.00
2023-02-27T15:37:21.800Z,8.50
2023-02-27T15:39:49.845Z,9.18
2023-02-27T15:42:16.867Z,9.10
2023-02-27T15:44:45.707Z,9.25
2023-02-27T15:47:32.376Z,9.93
2023-02-27T15:50:07.302Z,10.82
2023-02-27T15:52:41.931Z,9.77
2023-02-27T15:55:17.237Z,9.30
2023-02-27T16:00:28.550Z,10.45
2023-02-27T16:02:57.084Z,9.32
2023-02-27T16:05:28.191Z,10.32
2023-02-27T16:07:55.659Z,9.88
2023-02-27T16:10:25.988Z,12.15
2023-02-27T16:12:52.713Z,10.75
2023-02-27T16:15:31.537Z,10.82
2023-02-27T16:18:24.402Z,9.63
2023-02-27T16:20:55.011Z,9.80
2023-02-27T16:23:21.789Z,9.95
2023-02-27T16:26:05.406Z,11.15
2023-02-27T16:28:49.924Z,11.02
2023-02-27T16:31:25.358Z,9.43
2023-02-27T16:33:52.638Z,11.18
2023-02-27T16:36:27.966Z,11.35
2023-02-27T16:38:54.919Z,10.73
2023-02-27T16:41:23.361Z,11.18
2023-02-27T16:43:50.650Z,10.95
2023-02-27T16:46:21.721Z,11.65
2023-02-27T16:48:54.083Z,11.07
2023-02-27T16:51:23.941Z,10.63
2023-02-27T16:53:54.815Z,11.68
2023-02-27T16:56:37.417Z,10.63
2023-02-27T16:59:04.846Z,10.45
2023-02-27T17:01:33.940Z,11.05
2023-02-27T17:04:01.100Z,10.02
2023-02-27T17:06:28.252Z,9.98
2023-02-27T17:08:56.198Z,17.00
2023-02-27T17:11:22.988Z,13.73
2023-02-27T17:13:49.661Z,14.52
2023-02-27T17:16:16.364Z,11.15
2023-02-27T17:18:43.114Z,11.80
2023-02-27T17:21:09.800Z,10.75
2023-02-27T17:23:36.510Z,11.48
2023-02-27T17:26:03.480Z,11.25
2023-02-27T17:28:30.182Z,10.70
2023-02-27T17:30:56.912Z,17.92
2023-02-27T17:33:23.613Z,10.55
2023-02-27T17:35:51.582Z,10.57
2023-02-27T17:38:18.287Z,11.02
2023-02-27T17:40:44.960Z,12.50
2023-02-27T17:43:11.752Z,11.60
2023-02-27T17:45:38.671Z,11.40
2023-02-27T17:48:05.586Z,11.40
2023-02-27T17:50:32.501Z,13.80
2023-02-27T17:52:59.167Z,12.48
2023-02-27T17:55:26.129Z,11.93
2023-02-27T17:57:52.778Z,11.77
2023-02-27T18:00:19.869Z,10.93
2023-02-27T18:02:48.045Z,11.55
2023-02-27T18:05:14.841Z,11.80
2023-02-27T18:07:41.604Z,11.32
2023-02-27T18:10:09.432Z,13.40
2023-02-27T18:12:37.090Z,11.25
2023-02-27T18:15:04.571Z,11.77
2023-02-27T18:17:31.431Z,11.35
2023-02-27T18:19:58.172Z,11.23
2023-02-27T18:22:25.234Z,14.02
2023-02-27T18:24:55.675Z,12.05
2023-02-27T18:27:22.604Z,11.98
2023-02-27T18:29:49.865Z,12.20
2023-02-27T18:32:17.535Z,11.68
2023-02-27T18:34:44.593Z,10.88
2023-02-27T18:37:11.651Z,10.65
2023-02-27T18:39:38.328Z,11.68
2023-02-27T18:42:06.731Z,11.65
2023-02-27T18:44:33.647Z,11.00
2023-02-27T18:47:00.396Z,10.45
2023-02-27T18:49:27.235Z,11.02
2023-02-27T18:51:53.956Z,10.55
2023-02-27T18:54:20.718Z,10.13
2023-02-27T18:56:50.635Z,10.48
2023-02-27T18:59:17.293Z,9.32
2023-02-27T19:01:43.976Z,10.10
2023-02-27T19:04:10.695Z,10.27
2023-02-27T19:06:40.989Z,9.02
2023-02-27T19:09:10.274Z,9.07
2023-02-27T19:11:37.097Z,12.25
2023-02-27T19:14:06.224Z,9.23
2023-02-27T19:16:33.630Z,8.38
2023-02-27T19:19:01.443Z,8.30
2023-02-27T19:21:28.586Z,9.40
2023-02-27T19:23:55.895Z,8.00
2023-02-27T19:26:24.227Z,9.73
2023-02-27T19:28:53.804Z,15.00
2023-02-27T19:31:21.862Z,9.20
2023-02-27T19:33:48.608Z,9.45
2023-02-27T19:36:17.922Z,8.65
2023-02-27T19:41:12.818Z,8.13
2023-02-27T19:43:40.625Z,8.80
2023-02-27T19:46:12.696Z,8.85
2023-02-27T19:48:39.674Z,10.20
2023-02-27T19:51:08.648Z,8.20
2023-02-27T19:53:36.616Z,8.68
2023-02-27T19:56:08.923Z,9.65
2023-02-27T19:58:36.217Z,9.70
2023-02-27T20:01:04.098Z,8.60
2023-02-27T20:03:31.062Z,8.98
2023-02-27T20:05:57.864Z,8.35
2023-02-27T20:08:24.726Z,9.65
2023-02-27T20:10:58.776Z,9.15
2023-02-27T20:13:25.630Z,9.00
2023-02-27T20:16:00.389Z,8.57
2023-02-27T20:18:29.574Z,11.18
2023-02-27T20:21:03.848Z,9.27
2023-02-27T20:23:31.940Z,9.32
2023-02-27T20:25:58.645Z,8.43
2023-02-27T20:28:25.337Z,9.15
2023-02-27T20:30:52.065Z,7.78
2023-02-27T20:33:18.771Z,9.98
2023-02-27T20:35:45.591Z,7.60
2023-02-27T20:38:12.330Z,8.63
2023-02-27T20:40:39.018Z,8.15
2023-02-27T20:43:05.719Z,7.40
2023-02-27T20:45:32.376Z,6.38
2023-02-27T20:47:59.064Z,6.95
2023-02-27T20:50:25.825Z,6.43
2023-02-27T20:52:55.573Z,7.15
2023-02-27T20:55:22.350Z,6.13
2023-02-27T20:57:49.361Z,7.80
2023-02-27T21:00:16.495Z,9.50
2023-02-27T21:02:44.653Z,6.78
2023-02-27T21:05:11.413Z,6.68
2023-02-27T21:07:38.100Z,7.28
2023-02-27T21:10:05.682Z,6.60
2023-02-27T21:12:34.041Z,6.55
2023-02-27T21:15:00.721Z,6.75
2023-02-27T21:17:27.473Z,5.25
2023-02-27T21:19:54.169Z,5.78
2023-02-27T21:22:20.823Z,6.43
2023-02-27T21:24:50.036Z,7.40
2023-02-27T21:27:19.852Z,6.15
2023-02-27T21:29:47.029Z,6.25
2023-02-27T21:32:13.807Z,5.00
2023-02-27T21:34:40.513Z,5.15
2023-02-27T21:37:09.028Z,5.10
2023-02-27T21:39:35.875Z,4.55
2023-02-27T21:42:02.519Z,4.78
2023-02-27T21:44:29.810Z,4.90
2023-02-27T21:46:56.483Z,4.40
2023-02-27T21:49:25.241Z,5.18
2023-02-27T21:51:52.146Z,4.93
2023-02-27T21:54:19.390Z,4.00
2023-02-27T21:56:47.506Z,4.32
2023-02-27T21:59:14.952Z,4.43
2023-02-27T22:01:42.142Z,4.07
2023-02-27T22:04:08.895Z,4.00
2023-02-27T22:06:35.848Z,3.92
2023-02-27T22:09:05.580Z,4.22
2023-02-27T22:11:33.176Z,3.80
2023-02-27T22:14:00.205Z,4.05
2023-02-27T22:16:27.252Z,4.00
2023-02-27T22:18:53.930Z,4.10
2023-02-27T22:21:24.198Z,4.60
2023-02-27T22:23:51.220Z,3.90
2023-02-27T22:26:21.083Z,4.65
2023-02-27T22:28:47.748Z,3.97
2023-02-27T22:31:15.909Z,3.85
2023-02-27T22:33:43.639Z,4.20
2023-02-27T22:36:13.023Z,3.90
2023-02-27T22:41:09.160Z,3.47
2023-02-27T22:43:38.234Z,4.57
2023-02-27T22:46:08.429Z,6.45
2023-02-27T22:48:36.145Z,3.58
2023-02-27T22:51:12.906Z,3.78
2023-02-27T22:53:40.829Z,3.88
2023-02-27T22:56:12.542Z,4.28
2023-02-27T22:58:40.503Z,3.70
2023-02-27T23:01:11.760Z,3.72
2023-02-27T23:03:39.505Z,3.47
2023-02-27T23:06:07.631Z,3.38
2023-02-27T23:08:34.572Z,4.00
2023-02-27T23:11:01.431Z,4.18
2023-02-27T23:13:28.107Z,3.75
2023-02-27T23:15:54.945Z,3.50
2023-02-27T23:18:21.711Z,3.72
2023-02-27T23:20:48.492Z,4.30
2023-02-27T23:23:15.220Z,3.65
2023-02-27T23:25:41.932Z,4.25
2023-02-27T23:28:08.653Z,3.20
2023-02-27T23:30:35.361Z,3.00
2023-02-27T23:33:02.331Z,3.80
2023-02-27T23:35:29.282Z,3.75
2023-02-27T23:37:57.472Z,4.40
2023-02-27T23:40:26.427Z,3.22
2023-02-27T23:42:54.010Z,3.63
2023-02-27T23:45:23.521Z,3.72
2023-02-27T23:47:55.606Z,3.67
2023-02-27T23:50:27.431Z,3.85
2023-02-27T23:52:55.438Z,3.92
2023-02-27T23:55:22.747Z,4.30
2023-02-27T23:57:53.844Z,3.85
